OTBD

Doha International Airport

Doha, Qatar
TAF OTBD 200500Z 2006/2112 31014KT 8000 NSC TEMPO 2007/2014 33016G26KT 5000 BLDU
Issued Valid From Valid To
Jan-20 @ 05:00 UTC
(6 hours ago)
Jan-20 @ 06:00 UTC
(5 hours ago)
Jan-21 @ 12:00 UTC
(-1 days ago)
Jan-20 @ 06:00 to Jan-21 @ 12:00
TAF OTBD 200500Z 2006/2112 31014KT 8000 NSC
Wind Visibility Clouds
310° at 14 knots 7,998 meters
  • No significant clouds
Temporary Jan-20 @ 07:00 to Jan-20 @ 14:00
TEMPO 2007/2014 33016G26KT 5000 BLDU
Wind Visibility Conditions
330° at 16 knots
 Gusting to 26 knots
5,005 meters
  • Blowing
  • Dust
TAF OTBD 200500Z 2006/2112 31014KT 8000 NSC TEMPO 2007/2014 33016G26KT 5000 BLDU
Issued Jan-20 @ 05:00 UTC
(6 hours ago)
Valid From Jan-20 @ 06:00 UTC
(5 hours ago)
Valid To Jan-21 @ 12:00 UTC
(-1 days ago)
Jan-20 @ 06:00 - Jan-21 @ 12:00
Wind Visibility
310° at 14 knots 7,998 meters
Clouds
  • No significant clouds
Temporary Jan-20 @ 07:00 - Jan-20 @ 14:00
Wind Visibility
330° at 16 knots
 Gusting to 26 knots
5,005 meters
Conditions
  • Blowing
  • Dust